Terminal Aerodrome Forecast
Issued by NWS Brownsville, TX

Home | Current Version | Previous Version | Text Only | Print | Product List | Glossary On
Versions: 1 2 3 4 5 6 7 8 9 10 11 12
000
FTUS44 KBRO 220528
TAFHRL
TAF
KHRL 220528Z 2206/2306 15008KT P6SM SCT020 BKN250
     FM221500 15016G22KT P6SM VCSH SCT035 BKN050
     FM230200 13012KT P6SM FEW050=

USA.gov is the U.S. government's official web portal to all federal, state and local government web resources and services.